sensor_id;sensor_type;location;lat;lon;timestamp;P1;durP1;ratioP1;P2;durP2;ratioP2
43678;SDS011;29279;50.858;4.392;2022-09-09T00:04:09;6.13;;;1.58;;
43678;SDS011;29279;50.858;4.392;2022-09-09T00:06:46;9.38;;;1.77;;
43678;SDS011;29279;50.858;4.392;2022-09-09T00:09:16;5.65;;;1.20;;
43678;SDS011;29279;50.858;4.392;2022-09-09T00:14:40;8.75;;;1.90;;
43678;SDS011;29279;50.858;4.392;2022-09-09T00:17:09;4.75;;;1.33;;
43678;SDS011;29279;50.858;4.392;2022-09-09T00:19:46;11.57;;;1.92;;
43678;SDS011;29279;50.858;4.392;2022-09-09T00:22:27;9.13;;;1.60;;
43678;SDS011;29279;50.858;4.392;2022-09-09T00:25:02;5.20;;;1.60;;
43678;SDS011;29279;50.858;4.392;2022-09-09T00:27:48;4.30;;;1.15;;
43678;SDS011;29279;50.858;4.392;2022-09-09T00:30:19;7.82;;;2.28;;
43678;SDS011;29279;50.858;4.392;2022-09-09T00:35:24;8.27;;;1.88;;
43678;SDS011;29279;50.858;4.392;2022-09-09T00:37:52;5.82;;;1.30;;
43678;SDS011;29279;50.858;4.392;2022-09-09T00:41:04;4.97;;;1.20;;
43678;SDS011;29279;50.858;4.392;2022-09-09T00:46:13;7.13;;;1.73;;
43678;SDS011;29279;50.858;4.392;2022-09-09T00:57:14;7.38;;;1.23;;
43678;SDS011;29279;50.858;4.392;2022-09-09T00:59:56;9.43;;;1.20;;
43678;SDS011;29279;50.858;4.392;2022-09-09T01:02:39;5.82;;;1.23;;
43678;SDS011;29279;50.858;4.392;2022-09-09T01:07:58;9.43;;;1.25;;
43678;SDS011;29279;50.858;4.392;2022-09-09T01:13:02;6.43;;;1.48;;
43678;SDS011;29279;50.858;4.392;2022-09-09T01:15:38;11.18;;;1.40;;
43678;SDS011;29279;50.858;4.392;2022-09-09T01:18:08;9.73;;;1.35;;
43678;SDS011;29279;50.858;4.392;2022-09-09T01:24:04;9.88;;;1.10;;
43678;SDS011;29279;50.858;4.392;2022-09-09T01:26:58;8.93;;;1.45;;
43678;SDS011;29279;50.858;4.392;2022-09-09T01:29:27;14.05;;;1.65;;
43678;SDS011;29279;50.858;4.392;2022-09-09T01:31:57;5.10;;;1.27;;
43678;SDS011;29279;50.858;4.392;2022-09-09T01:34:44;10.52;;;2.55;;
43678;SDS011;29279;50.858;4.392;2022-09-09T01:37:10;8.30;;;1.98;;
43678;SDS011;29279;50.858;4.392;2022-09-09T01:39:38;8.90;;;2.03;;
43678;SDS011;29279;50.858;4.392;2022-09-09T01:42:09;7.15;;;1.55;;
43678;SDS011;29279;50.858;4.392;2022-09-09T01:44:37;11.88;;;1.92;;
43678;SDS011;29279;50.858;4.392;2022-09-09T01:47:04;9.80;;;2.35;;
43678;SDS011;29279;50.858;4.392;2022-09-09T01:49:30;5.40;;;1.52;;
43678;SDS011;29279;50.858;4.392;2022-09-09T01:51:57;11.52;;;1.45;;
43678;SDS011;29279;50.858;4.392;2022-09-09T01:54:24;9.77;;;1.60;;
43678;SDS011;29279;50.858;4.392;2022-09-09T01:59:53;6.75;;;1.60;;
43678;SDS011;29279;50.858;4.392;2022-09-09T02:02:30;11.43;;;2.22;;
43678;SDS011;29279;50.858;4.392;2022-09-09T02:08:20;14.68;;;2.58;;
43678;SDS011;29279;50.858;4.392;2022-09-09T02:11:07;12.18;;;2.10;;
43678;SDS011;29279;50.858;4.392;2022-09-09T02:13:43;10.07;;;1.80;;
43678;SDS011;29279;50.858;4.392;2022-09-09T02:16:12;10.82;;;1.95;;
43678;SDS011;29279;50.858;4.392;2022-09-09T02:21:21;15.57;;;2.78;;
43678;SDS011;29279;50.858;4.392;2022-09-09T02:23:48;17.83;;;3.33;;
43678;SDS011;29279;50.858;4.392;2022-09-09T02:26:17;14.23;;;2.13;;
43678;SDS011;29279;50.858;4.392;2022-09-09T02:28:47;17.33;;;3.33;;
43678;SDS011;29279;50.858;4.392;2022-09-09T02:31:15;10.30;;;1.90;;
43678;SDS011;29279;50.858;4.392;2022-09-09T02:33:45;14.68;;;2.85;;
43678;SDS011;29279;50.858;4.392;2022-09-09T02:36:14;19.02;;;2.38;;
43678;SDS011;29279;50.858;4.392;2022-09-09T02:38:45;14.98;;;2.63;;
43678;SDS011;29279;50.858;4.392;2022-09-09T02:41:17;14.43;;;1.83;;
43678;SDS011;29279;50.858;4.392;2022-09-09T02:43:47;17.30;;;3.45;;
43678;SDS011;29279;50.858;4.392;2022-09-09T02:56:45;12.45;;;2.15;;
43678;SDS011;29279;50.858;4.392;2022-09-09T02:59:16;12.23;;;2.15;;
43678;SDS011;29279;50.858;4.392;2022-09-09T03:01:43;14.15;;;2.17;;
43678;SDS011;29279;50.858;4.392;2022-09-09T03:04:09;9.40;;;2.53;;
43678;SDS011;29279;50.858;4.392;2022-09-09T03:06:34;15.60;;;2.25;;
43678;SDS011;29279;50.858;4.392;2022-09-09T03:09:00;14.27;;;1.95;;
43678;SDS011;29279;50.858;4.392;2022-09-09T03:11:27;15.32;;;2.38;;
43678;SDS011;29279;50.858;4.392;2022-09-09T03:13:54;11.20;;;2.08;;
43678;SDS011;29279;50.858;4.392;2022-09-09T03:16:21;13.63;;;2.25;;
43678;SDS011;29279;50.858;4.392;2022-09-09T03:18:47;17.95;;;2.13;;
43678;SDS011;29279;50.858;4.392;2022-09-09T03:21:14;12.23;;;2.42;;
43678;SDS011;29279;50.858;4.392;2022-09-09T03:23:39;14.40;;;2.65;;
43678;SDS011;29279;50.858;4.392;2022-09-09T03:26:05;14.70;;;1.80;;
43678;SDS011;29279;50.858;4.392;2022-09-09T03:28:31;14.35;;;2.05;;
43678;SDS011;29279;50.858;4.392;2022-09-09T03:31:01;15.57;;;2.25;;
43678;SDS011;29279;50.858;4.392;2022-09-09T03:33:28;13.70;;;2.60;;
43678;SDS011;29279;50.858;4.392;2022-09-09T03:35:55;15.70;;;2.53;;
43678;SDS011;29279;50.858;4.392;2022-09-09T03:38:22;16.67;;;2.22;;
43678;SDS011;29279;50.858;4.392;2022-09-09T03:40:49;17.73;;;2.00;;
43678;SDS011;29279;50.858;4.392;2022-09-09T03:43:16;23.05;;;2.75;;
43678;SDS011;29279;50.858;4.392;2022-09-09T03:45:45;14.73;;;2.30;;
43678;SDS011;29279;50.858;4.392;2022-09-09T03:48:14;12.73;;;2.63;;
43678;SDS011;29279;50.858;4.392;2022-09-09T03:50:45;13.82;;;2.50;;
43678;SDS011;29279;50.858;4.392;2022-09-09T03:53:12;14.63;;;2.78;;
43678;SDS011;29279;50.858;4.392;2022-09-09T03:55:39;19.83;;;2.55;;
43678;SDS011;29279;50.858;4.392;2022-09-09T03:58:08;12.77;;;2.50;;
43678;SDS011;29279;50.858;4.392;2022-09-09T04:00:34;14.85;;;2.35;;
43678;SDS011;29279;50.858;4.392;2022-09-09T04:02:59;19.55;;;2.50;;
43678;SDS011;29279;50.858;4.392;2022-09-09T04:05:25;11.85;;;2.53;;
43678;SDS011;29279;50.858;4.392;2022-09-09T04:07:50;16.23;;;2.40;;
43678;SDS011;29279;50.858;4.392;2022-09-09T04:10:16;15.13;;;2.10;;
43678;SDS011;29279;50.858;4.392;2022-09-09T04:12:42;14.68;;;2.45;;
43678;SDS011;29279;50.858;4.392;2022-09-09T04:15:08;13.70;;;3.25;;
43678;SDS011;29279;50.858;4.392;2022-09-09T04:17:35;19.27;;;2.47;;
43678;SDS011;29279;50.858;4.392;2022-09-09T04:20:01;18.95;;;2.92;;
43678;SDS011;29279;50.858;4.392;2022-09-09T04:22:27;14.60;;;3.38;;
43678;SDS011;29279;50.858;4.392;2022-09-09T04:24:53;17.60;;;2.97;;
43678;SDS011;29279;50.858;4.392;2022-09-09T04:27:19;10.43;;;2.35;;
43678;SDS011;29279;50.858;4.392;2022-09-09T04:29:44;18.40;;;3.05;;
43678;SDS011;29279;50.858;4.392;2022-09-09T04:32:10;13.85;;;2.47;;
43678;SDS011;29279;50.858;4.392;2022-09-09T04:34:36;16.17;;;3.47;;
43678;SDS011;29279;50.858;4.392;2022-09-09T04:37:02;15.77;;;2.50;;
43678;SDS011;29279;50.858;4.392;2022-09-09T04:39:28;19.23;;;3.75;;
43678;SDS011;29279;50.858;4.392;2022-09-09T04:41:53;18.05;;;2.67;;
43678;SDS011;29279;50.858;4.392;2022-09-09T04:44:20;18.25;;;3.13;;
43678;SDS011;29279;50.858;4.392;2022-09-09T04:46:46;16.88;;;2.97;;
43678;SDS011;29279;50.858;4.392;2022-09-09T04:49:11;19.80;;;3.42;;
43678;SDS011;29279;50.858;4.392;2022-09-09T04:51:37;19.08;;;2.75;;
43678;SDS011;29279;50.858;4.392;2022-09-09T04:54:03;18.70;;;2.78;;
43678;SDS011;29279;50.858;4.392;2022-09-09T04:56:29;11.98;;;2.40;;
43678;SDS011;29279;50.858;4.392;2022-09-09T04:58:54;12.00;;;2.67;;
43678;SDS011;29279;50.858;4.392;2022-09-09T05:01:20;20.92;;;3.63;;
43678;SDS011;29279;50.858;4.392;2022-09-09T05:03:48;14.63;;;2.95;;
43678;SDS011;29279;50.858;4.392;2022-09-09T05:06:15;14.52;;;3.22;;
43678;SDS011;29279;50.858;4.392;2022-09-09T05:08:43;18.48;;;3.45;;
43678;SDS011;29279;50.858;4.392;2022-09-09T05:11:13;13.90;;;2.33;;
43678;SDS011;29279;50.858;4.392;2022-09-09T05:13:47;20.38;;;3.10;;
43678;SDS011;29279;50.858;4.392;2022-09-09T05:16:15;15.27;;;3.47;;
43678;SDS011;29279;50.858;4.392;2022-09-09T05:18:41;19.95;;;3.47;;
43678;SDS011;29279;50.858;4.392;2022-09-09T05:21:11;21.23;;;3.53;;
43678;SDS011;29279;50.858;4.392;2022-09-09T05:23:38;16.17;;;3.33;;
43678;SDS011;29279;50.858;4.392;2022-09-09T05:26:04;12.75;;;2.40;;
43678;SDS011;29279;50.858;4.392;2022-09-09T05:28:33;15.27;;;2.45;;
43678;SDS011;29279;50.858;4.392;2022-09-09T05:31:01;17.42;;;2.90;;
43678;SDS011;29279;50.858;4.392;2022-09-09T05:33:33;16.02;;;2.40;;
43678;SDS011;29279;50.858;4.392;2022-09-09T05:36:01;17.65;;;2.75;;
43678;SDS011;29279;50.858;4.392;2022-09-09T05:38:29;12.00;;;2.88;;
43678;SDS011;29279;50.858;4.392;2022-09-09T05:40:57;16.17;;;2.55;;
43678;SDS011;29279;50.858;4.392;2022-09-09T05:43:23;16.05;;;2.35;;
43678;SDS011;29279;50.858;4.392;2022-09-09T05:46:00;22.55;;;4.05;;
43678;SDS011;29279;50.858;4.392;2022-09-09T05:48:31;13.15;;;2.80;;
43678;SDS011;29279;50.858;4.392;2022-09-09T05:50:59;15.50;;;2.40;;
43678;SDS011;29279;50.858;4.392;2022-09-09T05:53:26;15.38;;;2.83;;
43678;SDS011;29279;50.858;4.392;2022-09-09T05:56:05;20.52;;;3.22;;
43678;SDS011;29279;50.858;4.392;2022-09-09T05:58:45;14.25;;;2.63;;
43678;SDS011;29279;50.858;4.392;2022-09-09T06:01:18;24.30;;;3.13;;
43678;SDS011;29279;50.858;4.392;2022-09-09T06:03:46;16.77;;;3.38;;
43678;SDS011;29279;50.858;4.392;2022-09-09T06:06:14;16.52;;;3.05;;
43678;SDS011;29279;50.858;4.392;2022-09-09T06:08:42;22.85;;;3.55;;
43678;SDS011;29279;50.858;4.392;2022-09-09T06:11:31;19.73;;;2.63;;
43678;SDS011;29279;50.858;4.392;2022-09-09T06:13:56;21.40;;;2.72;;
43678;SDS011;29279;50.858;4.392;2022-09-09T06:16:23;17.40;;;3.10;;
43678;SDS011;29279;50.858;4.392;2022-09-09T06:18:50;13.73;;;2.78;;
43678;SDS011;29279;50.858;4.392;2022-09-09T06:21:20;14.90;;;2.53;;
43678;SDS011;29279;50.858;4.392;2022-09-09T06:23:48;15.27;;;2.85;;
43678;SDS011;29279;50.858;4.392;2022-09-09T06:26:23;14.68;;;2.33;;
43678;SDS011;29279;50.858;4.392;2022-09-09T06:28:53;21.30;;;3.85;;
43678;SDS011;29279;50.858;4.392;2022-09-09T06:31:21;18.27;;;3.03;;
43678;SDS011;29279;50.858;4.392;2022-09-09T06:33:48;17.95;;;2.97;;
43678;SDS011;29279;50.858;4.392;2022-09-09T06:36:19;18.75;;;2.53;;
43678;SDS011;29279;50.858;4.392;2022-09-09T06:38:47;12.77;;;2.30;;
43678;SDS011;29279;50.858;4.392;2022-09-09T06:41:13;10.23;;;2.42;;
43678;SDS011;29279;50.858;4.392;2022-09-09T06:43:41;17.55;;;2.92;;
43678;SDS011;29279;50.858;4.392;2022-09-09T06:46:12;17.60;;;2.70;;
43678;SDS011;29279;50.858;4.392;2022-09-09T06:48:46;18.02;;;3.15;;
43678;SDS011;29279;50.858;4.392;2022-09-09T06:53:41;18.55;;;2.67;;
43678;SDS011;29279;50.858;4.392;2022-09-09T06:56:19;9.68;;;2.22;;
43678;SDS011;29279;50.858;4.392;2022-09-09T06:58:50;17.52;;;2.50;;
43678;SDS011;29279;50.858;4.392;2022-09-09T07:01:18;18.27;;;2.75;;
43678;SDS011;29279;50.858;4.392;2022-09-09T07:03:46;15.68;;;2.60;;
43678;SDS011;29279;50.858;4.392;2022-09-09T07:06:15;15.45;;;3.10;;
43678;SDS011;29279;50.858;4.392;2022-09-09T07:08:44;17.80;;;3.25;;
43678;SDS011;29279;50.858;4.392;2022-09-09T07:11:15;15.63;;;2.60;;
43678;SDS011;29279;50.858;4.392;2022-09-09T07:13:40;21.90;;;2.63;;
43678;SDS011;29279;50.858;4.392;2022-09-09T07:16:11;17.23;;;2.90;;
43678;SDS011;29279;50.858;4.392;2022-09-09T07:18:38;11.13;;;2.80;;
43678;SDS011;29279;50.858;4.392;2022-09-09T07:21:05;15.50;;;2.45;;
43678;SDS011;29279;50.858;4.392;2022-09-09T07:23:31;14.80;;;3.38;;
43678;SDS011;29279;50.858;4.392;2022-09-09T07:25:57;13.45;;;2.25;;
43678;SDS011;29279;50.858;4.392;2022-09-09T07:28:24;13.90;;;2.10;;
43678;SDS011;29279;50.858;4.392;2022-09-09T07:30:58;14.38;;;2.38;;
43678;SDS011;29279;50.858;4.392;2022-09-09T07:33:27;17.85;;;2.60;;
43678;SDS011;29279;50.858;4.392;2022-09-09T07:36:01;17.33;;;2.33;;
43678;SDS011;29279;50.858;4.392;2022-09-09T07:38:32;18.58;;;3.42;;
43678;SDS011;29279;50.858;4.392;2022-09-09T07:41:03;17.33;;;2.58;;
43678;SDS011;29279;50.858;4.392;2022-09-09T07:43:30;13.50;;;2.72;;
43678;SDS011;29279;50.858;4.392;2022-09-09T07:45:59;11.68;;;2.80;;
43678;SDS011;29279;50.858;4.392;2022-09-09T07:48:28;10.27;;;2.83;;
43678;SDS011;29279;50.858;4.392;2022-09-09T07:51:02;15.50;;;2.33;;
43678;SDS011;29279;50.858;4.392;2022-09-09T07:53:40;10.63;;;2.30;;
43678;SDS011;29279;50.858;4.392;2022-09-09T07:56:06;16.13;;;2.65;;
43678;SDS011;29279;50.858;4.392;2022-09-09T07:58:38;22.17;;;4.75;;
43678;SDS011;29279;50.858;4.392;2022-09-09T08:01:08;13.32;;;2.42;;
43678;SDS011;29279;50.858;4.392;2022-09-09T08:03:36;13.63;;;2.42;;
43678;SDS011;29279;50.858;4.392;2022-09-09T08:06:06;12.77;;;2.40;;
43678;SDS011;29279;50.858;4.392;2022-09-09T08:08:34;14.18;;;2.45;;
43678;SDS011;29279;50.858;4.392;2022-09-09T08:11:08;14.43;;;3.08;;
43678;SDS011;29279;50.858;4.392;2022-09-09T08:13:40;14.80;;;2.90;;
43678;SDS011;29279;50.858;4.392;2022-09-09T08:16:08;15.93;;;3.67;;
43678;SDS011;29279;50.858;4.392;2022-09-09T08:18:39;10.65;;;2.40;;
43678;SDS011;29279;50.858;4.392;2022-09-09T08:21:09;10.85;;;2.50;;
43678;SDS011;29279;50.858;4.392;2022-09-09T08:23:45;8.70;;;1.75;;
43678;SDS011;29279;50.858;4.392;2022-09-09T08:26:15;17.35;;;2.38;;
43678;SDS011;29279;50.858;4.392;2022-09-09T08:28:42;16.88;;;2.72;;
43678;SDS011;29279;50.858;4.392;2022-09-09T08:33:44;12.95;;;2.90;;
43678;SDS011;29279;50.858;4.392;2022-09-09T08:36:14;16.48;;;3.15;;
43678;SDS011;29279;50.858;4.392;2022-09-09T08:38:42;15.50;;;3.28;;
43678;SDS011;29279;50.858;4.392;2022-09-09T08:43:52;15.07;;;2.72;;
43678;SDS011;29279;50.858;4.392;2022-09-09T08:46:35;12.43;;;2.97;;
43678;SDS011;29279;50.858;4.392;2022-09-09T08:51:56;25.65;;;4.95;;
43678;SDS011;29279;50.858;4.392;2022-09-09T08:54:23;13.82;;;3.17;;
43678;SDS011;29279;50.858;4.392;2022-09-09T08:56:51;18.77;;;3.58;;
43678;SDS011;29279;50.858;4.392;2022-09-09T08:59:17;17.23;;;2.70;;
43678;SDS011;29279;50.858;4.392;2022-09-09T09:09:46;14.35;;;2.85;;
43678;SDS011;29279;50.858;4.392;2022-09-09T09:12:24;12.60;;;3.10;;
43678;SDS011;29279;50.858;4.392;2022-09-09T09:14:54;10.15;;;2.15;;
43678;SDS011;29279;50.858;4.392;2022-09-09T09:17:21;13.07;;;3.05;;
43678;SDS011;29279;50.858;4.392;2022-09-09T09:19:50;10.55;;;3.28;;
43678;SDS011;29279;50.858;4.392;2022-09-09T09:22:20;15.90;;;2.67;;
43678;SDS011;29279;50.858;4.392;2022-09-09T09:25:27;17.48;;;2.97;;
43678;SDS011;29279;50.858;4.392;2022-09-09T09:30:42;10.45;;;2.28;;
43678;SDS011;29279;50.858;4.392;2022-09-09T09:35:49;18.27;;;2.95;;
43678;SDS011;29279;50.858;4.392;2022-09-09T09:38:23;16.98;;;3.20;;
43678;SDS011;29279;50.858;4.392;2022-09-09T09:40:51;13.02;;;3.00;;
43678;SDS011;29279;50.858;4.392;2022-09-09T09:43:36;13.75;;;3.22;;
43678;SDS011;29279;50.858;4.392;2022-09-09T09:46:04;15.50;;;2.70;;
43678;SDS011;29279;50.858;4.392;2022-09-09T09:48:42;15.70;;;3.70;;
43678;SDS011;29279;50.858;4.392;2022-09-09T09:51:09;16.52;;;3.17;;
43678;SDS011;29279;50.858;4.392;2022-09-09T09:53:38;24.65;;;3.83;;
43678;SDS011;29279;50.858;4.392;2022-09-09T09:56:09;18.23;;;3.20;;
43678;SDS011;29279;50.858;4.392;2022-09-09T10:01:29;9.85;;;2.58;;
43678;SDS011;29279;50.858;4.392;2022-09-09T10:06:41;14.95;;;2.63;;
43678;SDS011;29279;50.858;4.392;2022-09-09T10:09:24;14.70;;;2.35;;
43678;SDS011;29279;50.858;4.392;2022-09-09T10:15:21;12.55;;;2.05;;
43678;SDS011;29279;50.858;4.392;2022-09-09T10:37:27;14.18;;;3.28;;
43678;SDS011;29279;50.858;4.392;2022-09-09T10:42:33;14.05;;;3.95;;
43678;SDS011;29279;50.858;4.392;2022-09-09T10:56:29;12.65;;;2.63;;
43678;SDS011;29279;50.858;4.392;2022-09-09T10:59:04;11.45;;;2.58;;
43678;SDS011;29279;50.858;4.392;2022-09-09T11:01:39;13.02;;;2.15;;
43678;SDS011;29279;50.858;4.392;2022-09-09T11:04:32;21.20;;;3.05;;
43678;SDS011;29279;50.858;4.392;2022-09-09T11:06:59;11.02;;;2.47;;
43678;SDS011;29279;50.858;4.392;2022-09-09T11:09:31;13.10;;;2.50;;
43678;SDS011;29279;50.858;4.392;2022-09-09T11:12:02;11.43;;;2.05;;
43678;SDS011;29279;50.858;4.392;2022-09-09T11:15:02;11.38;;;2.33;;
43678;SDS011;29279;50.858;4.392;2022-09-09T11:17:42;10.73;;;2.58;;
43678;SDS011;29279;50.858;4.392;2022-09-09T11:20:14;14.00;;;2.60;;
43678;SDS011;29279;50.858;4.392;2022-09-09T11:23:03;15.60;;;2.40;;
43678;SDS011;29279;50.858;4.392;2022-09-09T11:25:57;8.43;;;2.13;;
43678;SDS011;29279;50.858;4.392;2022-09-09T11:31:44;16.27;;;2.70;;
43678;SDS011;29279;50.858;4.392;2022-09-09T11:37:15;9.80;;;2.60;;
43678;SDS011;29279;50.858;4.392;2022-09-09T11:39:55;17.33;;;2.65;;
43678;SDS011;29279;50.858;4.392;2022-09-09T11:42:42;10.05;;;2.15;;
43678;SDS011;29279;50.858;4.392;2022-09-09T11:45:10;12.80;;;2.28;;
43678;SDS011;29279;50.858;4.392;2022-09-09T11:47:55;8.88;;;2.25;;
43678;SDS011;29279;50.858;4.392;2022-09-09T11:52:48;9.27;;;2.17;;
43678;SDS011;29279;50.858;4.392;2022-09-09T11:57:58;13.18;;;2.10;;
43678;SDS011;29279;50.858;4.392;2022-09-09T12:02:58;8.00;;;1.73;;
43678;SDS011;29279;50.858;4.392;2022-09-09T12:05:24;9.95;;;1.98;;
43678;SDS011;29279;50.858;4.392;2022-09-09T12:08:05;9.07;;;2.38;;
43678;SDS011;29279;50.858;4.392;2022-09-09T12:10:35;12.88;;;2.30;;
43678;SDS011;29279;50.858;4.392;2022-09-09T12:13:16;7.65;;;1.98;;
43678;SDS011;29279;50.858;4.392;2022-09-09T12:15:48;13.30;;;3.38;;
43678;SDS011;29279;50.858;4.392;2022-09-09T12:18:32;13.97;;;2.43;;
43678;SDS011;29279;50.858;4.392;2022-09-09T12:21:02;15.40;;;2.83;;
43678;SDS011;29279;50.858;4.392;2022-09-09T12:24:00;8.13;;;2.20;;
43678;SDS011;29279;50.858;4.392;2022-09-09T12:26:38;10.77;;;2.10;;
43678;SDS011;29279;50.858;4.392;2022-09-09T12:29:14;15.75;;;1.90;;
43678;SDS011;29279;50.858;4.392;2022-09-09T12:31:48;10.15;;;2.40;;
43678;SDS011;29279;50.858;4.392;2022-09-09T12:34:19;12.52;;;2.60;;
43678;SDS011;29279;50.858;4.392;2022-09-09T12:39:57;9.98;;;2.40;;
43678;SDS011;29279;50.858;4.392;2022-09-09T12:42:24;10.00;;;1.70;;
43678;SDS011;29279;50.858;4.392;2022-09-09T12:45:01;12.32;;;1.80;;
43678;SDS011;29279;50.858;4.392;2022-09-09T12:47:41;9.25;;;2.10;;
43678;SDS011;29279;50.858;4.392;2022-09-09T12:50:17;12.75;;;2.33;;
43678;SDS011;29279;50.858;4.392;2022-09-09T12:52:46;12.15;;;2.15;;
43678;SDS011;29279;50.858;4.392;2022-09-09T12:55:19;8.27;;;2.42;;
43678;SDS011;29279;50.858;4.392;2022-09-09T12:57:50;7.50;;;1.92;;
43678;SDS011;29279;50.858;4.392;2022-09-09T13:02:55;8.43;;;1.55;;
43678;SDS011;29279;50.858;4.392;2022-09-09T13:08:00;8.15;;;1.95;;
43678;SDS011;29279;50.858;4.392;2022-09-09T13:10:40;6.35;;;1.60;;
43678;SDS011;29279;50.858;4.392;2022-09-09T13:13:22;7.72;;;1.95;;
43678;SDS011;29279;50.858;4.392;2022-09-09T13:18:32;11.80;;;2.53;;
43678;SDS011;29279;50.858;4.392;2022-09-09T13:21:03;8.65;;;3.13;;
43678;SDS011;29279;50.858;4.392;2022-09-09T13:23:29;9.93;;;2.92;;
43678;SDS011;29279;50.858;4.392;2022-09-09T13:26:18;13.43;;;3.58;;
43678;SDS011;29279;50.858;4.392;2022-09-09T13:28:50;12.82;;;3.05;;
43678;SDS011;29279;50.858;4.392;2022-09-09T13:31:22;8.05;;;2.03;;
43678;SDS011;29279;50.858;4.392;2022-09-09T13:33:52;5.78;;;1.73;;
43678;SDS011;29279;50.858;4.392;2022-09-09T13:36:27;6.07;;;1.60;;
43678;SDS011;29279;50.858;4.392;2022-09-09T13:38:57;7.55;;;2.08;;
43678;SDS011;29279;50.858;4.392;2022-09-09T13:41:35;9.70;;;1.85;;
43678;SDS011;29279;50.858;4.392;2022-09-09T13:44:14;6.93;;;1.90;;
43678;SDS011;29279;50.858;4.392;2022-09-09T13:46:45;5.43;;;1.20;;
43678;SDS011;29279;50.858;4.392;2022-09-09T13:51:41;5.40;;;1.25;;
43678;SDS011;29279;50.858;4.392;2022-09-09T13:54:09;6.50;;;1.35;;
43678;SDS011;29279;50.858;4.392;2022-09-09T13:56:36;5.85;;;1.50;;
43678;SDS011;29279;50.858;4.392;2022-09-09T13:59:04;7.47;;;2.40;;
43678;SDS011;29279;50.858;4.392;2022-09-09T14:01:31;5.72;;;1.70;;
43678;SDS011;29279;50.858;4.392;2022-09-09T14:04:00;4.55;;;1.40;;
43678;SDS011;29279;50.858;4.392;2022-09-09T14:06:25;4.50;;;1.48;;
43678;SDS011;29279;50.858;4.392;2022-09-09T14:08:52;4.13;;;1.45;;
43678;SDS011;29279;50.858;4.392;2022-09-09T14:11:19;9.13;;;1.83;;
43678;SDS011;29279;50.858;4.392;2022-09-09T14:13:46;9.13;;;1.60;;
43678;SDS011;29279;50.858;4.392;2022-09-09T14:16:14;9.38;;;1.80;;
43678;SDS011;29279;50.858;4.392;2022-09-09T14:18:41;5.82;;;1.70;;
43678;SDS011;29279;50.858;4.392;2022-09-09T14:21:07;8.43;;;1.95;;
43678;SDS011;29279;50.858;4.392;2022-09-09T14:23:33;3.92;;;1.33;;
43678;SDS011;29279;50.858;4.392;2022-09-09T14:25:59;5.85;;;2.03;;
43678;SDS011;29279;50.858;4.392;2022-09-09T14:28:25;9.73;;;2.47;;
43678;SDS011;29279;50.858;4.392;2022-09-09T14:30:50;6.13;;;2.03;;
43678;SDS011;29279;50.858;4.392;2022-09-09T14:33:16;7.25;;;1.83;;
43678;SDS011;29279;50.858;4.392;2022-09-09T14:35:42;7.75;;;1.90;;
43678;SDS011;29279;50.858;4.392;2022-09-09T14:38:09;9.82;;;1.92;;
43678;SDS011;29279;50.858;4.392;2022-09-09T14:40:35;7.55;;;1.75;;
43678;SDS011;29279;50.858;4.392;2022-09-09T14:43:03;6.97;;;2.10;;
43678;SDS011;29279;50.858;4.392;2022-09-09T14:45:30;6.50;;;1.58;;
43678;SDS011;29279;50.858;4.392;2022-09-09T14:47:56;8.15;;;2.00;;
43678;SDS011;29279;50.858;4.392;2022-09-09T14:50:22;13.63;;;3.00;;
43678;SDS011;29279;50.858;4.392;2022-09-09T14:52:48;8.10;;;1.65;;
43678;SDS011;29279;50.858;4.392;2022-09-09T14:55:15;8.95;;;1.80;;
43678;SDS011;29279;50.858;4.392;2022-09-09T14:57:42;4.60;;;1.80;;
43678;SDS011;29279;50.858;4.392;2022-09-09T15:00:08;5.20;;;1.67;;
43678;SDS011;29279;50.858;4.392;2022-09-09T15:02:36;6.75;;;2.13;;
43678;SDS011;29279;50.858;4.392;2022-09-09T15:05:02;5.25;;;1.45;;
43678;SDS011;29279;50.858;4.392;2022-09-09T15:07:29;8.60;;;2.38;;
43678;SDS011;29279;50.858;4.392;2022-09-09T15:09:56;8.13;;;1.90;;
43678;SDS011;29279;50.858;4.392;2022-09-09T15:12:23;8.57;;;1.75;;
43678;SDS011;29279;50.858;4.392;2022-09-09T15:14:49;6.30;;;1.70;;
43678;SDS011;29279;50.858;4.392;2022-09-09T15:17:15;7.82;;;1.88;;
43678;SDS011;29279;50.858;4.392;2022-09-09T15:19:41;8.98;;;1.98;;
43678;SDS011;29279;50.858;4.392;2022-09-09T15:22:07;6.20;;;1.60;;
43678;SDS011;29279;50.858;4.392;2022-09-09T15:24:34;7.97;;;2.17;;
43678;SDS011;29279;50.858;4.392;2022-09-09T15:27:00;8.98;;;2.03;;
43678;SDS011;29279;50.858;4.392;2022-09-09T15:29:26;8.55;;;1.77;;
43678;SDS011;29279;50.858;4.392;2022-09-09T15:31:55;5.20;;;1.50;;
43678;SDS011;29279;50.858;4.392;2022-09-09T15:34:21;6.85;;;2.10;;
43678;SDS011;29279;50.858;4.392;2022-09-09T15:36:47;6.05;;;1.50;;
43678;SDS011;29279;50.858;4.392;2022-09-09T15:39:17;9.07;;;1.88;;
43678;SDS011;29279;50.858;4.392;2022-09-09T15:41:46;12.63;;;2.28;;
43678;SDS011;29279;50.858;4.392;2022-09-09T15:44:13;6.40;;;2.00;;
43678;SDS011;29279;50.858;4.392;2022-09-09T15:46:41;7.20;;;1.92;;
43678;SDS011;29279;50.858;4.392;2022-09-09T15:49:09;8.85;;;2.67;;
43678;SDS011;29279;50.858;4.392;2022-09-09T15:51:46;9.75;;;2.17;;
43678;SDS011;29279;50.858;4.392;2022-09-09T15:54:20;10.65;;;1.90;;
43678;SDS011;29279;50.858;4.392;2022-09-09T15:56:49;9.43;;;2.08;;
43678;SDS011;29279;50.858;4.392;2022-09-09T15:59:23;7.82;;;2.28;;
43678;SDS011;29279;50.858;4.392;2022-09-09T16:01:49;6.32;;;1.90;;
43678;SDS011;29279;50.858;4.392;2022-09-09T16:04:18;11.32;;;2.20;;
43678;SDS011;29279;50.858;4.392;2022-09-09T16:06:51;10.15;;;2.20;;
43678;SDS011;29279;50.858;4.392;2022-09-09T16:09:19;3.83;;;1.60;;
43678;SDS011;29279;50.858;4.392;2022-09-09T16:11:45;11.75;;;2.15;;
43678;SDS011;29279;50.858;4.392;2022-09-09T16:14:12;7.97;;;2.42;;
43678;SDS011;29279;50.858;4.392;2022-09-09T16:16:38;14.27;;;2.72;;
43678;SDS011;29279;50.858;4.392;2022-09-09T16:19:07;4.60;;;2.00;;
43678;SDS011;29279;50.858;4.392;2022-09-09T16:21:44;9.73;;;2.15;;
43678;SDS011;29279;50.858;4.392;2022-09-09T16:24:13;5.78;;;2.17;;
43678;SDS011;29279;50.858;4.392;2022-09-09T16:26:41;8.93;;;2.55;;
43678;SDS011;29279;50.858;4.392;2022-09-09T16:29:11;6.43;;;2.20;;
43678;SDS011;29279;50.858;4.392;2022-09-09T16:31:38;10.05;;;2.00;;
43678;SDS011;29279;50.858;4.392;2022-09-09T16:34:05;9.60;;;2.00;;
43678;SDS011;29279;50.858;4.392;2022-09-09T16:36:32;7.50;;;1.38;;
43678;SDS011;29279;50.858;4.392;2022-09-09T16:39:00;7.38;;;1.40;;
43678;SDS011;29279;50.858;4.392;2022-09-09T16:41:30;4.88;;;1.52;;
43678;SDS011;29279;50.858;4.392;2022-09-09T16:44:01;4.05;;;1.48;;
43678;SDS011;29279;50.858;4.392;2022-09-09T16:46:30;4.57;;;1.70;;
43678;SDS011;29279;50.858;4.392;2022-09-09T16:48:59;7.22;;;2.22;;
43678;SDS011;29279;50.858;4.392;2022-09-09T16:51:30;7.57;;;1.92;;
43678;SDS011;29279;50.858;4.392;2022-09-09T16:53:58;8.60;;;2.00;;
43678;SDS011;29279;50.858;4.392;2022-09-09T16:56:27;6.95;;;2.28;;
43678;SDS011;29279;50.858;4.392;2022-09-09T16:58:58;5.70;;;1.98;;
43678;SDS011;29279;50.858;4.392;2022-09-09T17:01:26;8.68;;;2.28;;
43678;SDS011;29279;50.858;4.392;2022-09-09T17:03:58;5.38;;;2.15;;
43678;SDS011;29279;50.858;4.392;2022-09-09T17:06:28;9.35;;;2.60;;
43678;SDS011;29279;50.858;4.392;2022-09-09T17:08:59;4.45;;;1.77;;
43678;SDS011;29279;50.858;4.392;2022-09-09T17:11:26;12.48;;;2.60;;
43678;SDS011;29279;50.858;4.392;2022-09-09T17:13:53;11.10;;;2.47;;
43678;SDS011;29279;50.858;4.392;2022-09-09T17:16:21;13.43;;;2.13;;
43678;SDS011;29279;50.858;4.392;2022-09-09T17:18:49;11.10;;;2.90;;